Hoopa Valley Indian Reservat, California
Current Conditions -  °F | °C
As of 3:53 PM on Monday 24 Nov 2014 (Local Time) from KACV Reporting Station
Clear Clear  
Wind Chill: 61°   Ceiling: Unl
Heat Index: 61°   Visibility: 8mi
Dew Point: 41°   Wind: 0mph
Humidity: 48%   Direction: NA
Pressure: 30.37"   Gusts: NA
Location:  41.4038°N, 123.781°W
Report Text: KACV 242353Z AUTO 00000KT 8SM CLR 16/05 A3037 RMK AO2 SLP291 T01610050 10172 20122 58003
Loading
Personal Weather Stations






























Interactive Weather Map New forecast layout! Learn more

10-Day Weather Forecast

Advertisements
Track Severe Weather on mobile